Time;durP1;ratioP1;P1;durP2;ratioP2;P2;SDS_P1;SDS_P2;PMS_P1;PMS_P2;Temp;Humidity;BMP_temperature;BMP_pressure;BME280_temperature;BME280_humidity;BME280_pressure;Samples;Min_cycle;Max_cycle;Signal;HPM_P1;HPM_P2
2022/04/05 00:00:24;;;;;;;15.45;12.32;;;;;;;8.87;81.67;100413.69;5029943;28;20051;-84
2022/04/05 00:02:50;;;;;;;17.27;11.98;;;;;;;8.84;83.03;100423.84;5031566;28;20087;-84
2022/04/05 00:05:15;;;;;;;17.95;12.48;;;;;;;8.67;84.32;100405.13;5031096;28;20026;-85
2022/04/05 00:07:41;;;;;;;18.70;11.95;;;;;;;8.82;84.24;100419.44;5029916;28;20025;-84
2022/04/05 00:10:06;;;;;;;19.77;12.90;;;;;;;8.84;84.33;100416.13;5029630;28;20033;-84
2022/04/05 00:12:32;;;;;;;18.83;13.15;;;;;;;8.87;84.16;100423.09;5031328;28;20025;-84
2022/04/05 00:14:58;;;;;;;17.30;12.20;;;;;;;8.84;84.95;100408.41;5030713;28;20040;-85
2022/04/05 00:17:23;;;;;;;17.27;12.13;;;;;;;8.93;85.30;100423.34;5046254;28;20056;-84
2022/04/05 00:19:49;;;;;;;17.42;12.27;;;;;;;8.94;85.83;100430.28;5030913;28;20086;-84
2022/04/05 00:22:14;;;;;;;17.65;12.52;;;;;;;8.90;85.62;100407.78;5029635;28;20091;-84
2022/04/05 00:24:40;;;;;;;15.30;12.30;;;;;;;8.96;85.54;100412.31;5030890;28;20140;-84
2022/04/05 00:27:05;;;;;;;15.57;12.32;;;;;;;8.92;86.24;100407.84;5046252;28;20030;-84
2022/04/05 00:29:31;;;;;;;15.73;11.63;;;;;;;8.74;86.20;100371.09;5029385;28;20030;-83
2022/04/05 00:31:56;;;;;;;19.10;12.45;;;;;;;8.78;86.76;100395.25;5029491;28;20045;-82
2022/04/05 00:34:25;;;;;;;19.23;12.00;;;;;;;8.66;87.34;100381.88;5029569;28;20029;-82
2022/04/05 00:36:54;;;;;;;17.80;11.50;;;;;;;8.70;87.83;100394.06;5030900;28;20029;-83
2022/04/05 00:39:20;;;;;;;15.27;11.57;;;;;;;8.57;87.72;100388.41;5029631;28;20029;-83
2022/04/05 00:41:47;;;;;;;15.13;11.40;;;;;;;8.54;87.16;100370.22;5029175;28;20032;-83
2022/04/05 00:44:13;;;;;;;15.20;11.48;;;;;;;8.51;87.77;100382.09;5045496;28;20028;-82
2022/04/05 00:46:38;;;;;;;15.65;10.88;;;;;;;8.20;87.98;100336.97;5045802;28;20463;-84
2022/04/05 00:49:04;;;;;;;13.50;10.52;;;;;;;8.51;87.81;100395.84;5029180;28;20041;-84
2022/04/05 00:51:30;;;;;;;13.88;10.85;;;;;;;8.47;88.46;100391.34;5029256;28;20033;-84
2022/04/05 00:53:59;;;;;;;15.02;11.07;;;;;;;8.14;88.14;100334.13;5030331;28;20037;-84
2022/04/05 00:56:27;;;;;;;14.35;11.38;;;;;;;8.37;87.89;100373.72;5030216;28;20552;-84
2022/04/05 00:58:54;;;;;;;15.70;10.80;;;;;;;8.46;87.61;100384.47;5030119;28;20025;-82
2022/04/05 01:01:21;;;;;;;12.32;10.25;;;;;;;8.37;87.42;100371.16;5030433;28;20025;-82
2022/04/05 01:03:49;;;;;;;14.15;10.10;;;;;;;8.34;87.84;100376.19;5030677;28;20026;-84
2022/04/05 01:06:22;;;;;;;17.13;10.95;;;;;;;8.30;87.80;100376.84;5045693;28;20030;-84
2022/04/05 01:08:48;;;;;;;13.93;9.65;;;;;;;8.37;87.03;100368.59;5048669;28;20457;-84
2022/04/05 01:11:14;;;;;;;12.68;10.00;;;;;;;8.08;87.33;100333.03;5032628;28;20064;-84
2022/04/05 01:13:39;;;;;;;14.00;9.93;;;;;;;7.93;88.47;100355.50;5034411;28;20025;-85
2022/04/05 01:16:05;;;;;;;12.98;9.63;;;;;;;7.99;87.98;100365.16;5034275;28;20125;-84
2022/04/05 01:18:31;;;;;;;12.68;9.63;;;;;;;7.83;87.51;100332.75;5034080;28;20496;-84
2022/04/05 01:20:57;;;;;;;14.18;10.48;;;;;;;7.86;87.46;100348.31;5034199;28;20048;-85
2022/04/05 01:23:23;;;;;;;13.77;9.80;;;;;;;7.69;87.90;100339.81;5049691;28;20485;-86
2022/04/05 01:25:49;;;;;;;15.15;10.13;;;;;;;7.72;87.56;100366.53;5049020;28;20119;-84
2022/04/05 01:28:14;;;;;;;12.45;9.48;;;;;;;7.63;88.53;100354.94;5034141;28;20036;-85
2022/04/05 01:30:40;;;;;;;15.00;9.63;;;;;;;7.64;87.98;100352.47;5032567;28;20033;-85
2022/04/05 01:33:06;;;;;;;16.98;10.32;;;;;;;7.74;87.62;100354.66;5033952;28;20033;-85
2022/04/05 01:35:34;;;;;;;13.35;10.43;;;;;;;7.69;87.22;100350.09;5033971;28;20029;-85
2022/04/05 01:38:02;;;;;;;13.95;9.73;;;;;;;7.81;87.64;100365.22;5049168;28;20405;-84
2022/04/05 01:40:27;;;;;;;12.73;10.27;;;;;;;7.77;87.66;100364.19;5033704;28;20116;-84
2022/04/05 01:42:53;;;;;;;14.10;10.15;;;;;;;7.62;87.91;100364.34;5049221;28;20128;-85
2022/04/05 01:45:19;;;;;;;15.32;9.95;;;;;;;7.52;87.87;100334.78;5034092;28;20112;-85
2022/04/05 01:47:44;;;;;;;13.98;9.93;;;;;;;7.67;87.08;100359.44;5033916;28;20084;-85
2022/04/05 01:50:10;;;;;;;12.93;9.68;;;;;;;7.66;87.31;100355.09;5049013;28;20032;-85
2022/04/05 01:52:35;;;;;;;14.52;9.73;;;;;;;7.53;87.54;100343.38;5033880;28;20063;-83
2022/04/05 01:55:01;;;;;;;12.65;9.95;;;;;;;7.56;87.66;100348.66;5033309;28;20029;-83
2022/04/05 01:57:26;;;;;;;15.10;9.88;;;;;;;7.58;87.40;100342.75;5033721;28;20037;-84
2022/04/05 01:59:52;;;;;;;15.35;10.07;;;;;;;7.57;86.98;100332.44;5033241;28;20029;-85
2022/04/05 02:02:17;;;;;;;13.52;9.43;;;;;;;7.49;87.18;100316.66;5033547;28;20065;-86
2022/04/05 02:04:43;;;;;;;15.27;10.13;;;;;;;7.72;86.72;100353.69;5048612;28;20056;-85
2022/04/05 02:07:17;;;;;;;14.30;9.50;;;;;;;7.37;86.87;100303.25;5032176;28;20045;-84
2022/04/05 02:09:44;;;;;;;12.55;10.15;;;;;;;7.47;87.12;100349.09;5032775;28;20025;-84
2022/04/05 02:12:11;;;;;;;12.68;9.55;;;;;;;7.48;88.00;100345.72;5033847;28;20034;-86
2022/04/05 02:14:39;;;;;;;11.68;9.65;;;;;;;7.33;87.43;100335.59;5033479;28;20114;-84
2022/04/05 02:17:05;;;;;;;13.52;10.13;;;;;;;7.39;87.87;100342.69;5031989;28;20037;-84
2022/04/05 02:19:31;;;;;;;13.40;9.43;;;;;;;7.40;87.73;100324.81;5048171;28;20120;-85
2022/04/05 02:21:57;;;;;;;13.30;9.30;;;;;;;7.50;86.93;100338.06;5033071;28;20137;-86
2022/04/05 02:24:22;;;;;;;15.10;8.93;;;;;;;7.40;86.90;100332.53;5032731;28;20068;-84
2022/04/05 02:26:49;;;;;;;12.65;8.75;;;;;;;7.37;86.43;100326.34;5032923;28;20079;-84
2022/04/05 02:29:14;;;;;;;15.27;9.45;;;;;;;7.46;86.63;100337.06;5032864;28;20467;-84
2022/04/05 02:31:40;;;;;;;12.05;9.48;;;;;;;7.32;86.25;100331.25;5032992;28;20033;-84
2022/04/05 02:34:05;;;;;;;12.43;9.25;;;;;;;7.12;87.04;100302.06;5031643;28;20057;-83
2022/04/05 02:36:31;;;;;;;10.77;8.80;;;;;;;7.02;86.87;100312.72;5032681;28;20030;-83
2022/04/05 02:38:56;;;;;;;14.43;9.20;;;;;;;7.03;87.95;100334.97;5047621;28;20457;-83
2022/04/05 02:41:22;;;;;;;11.82;9.48;;;;;;;7.21;87.84;100355.53;5032963;28;20461;-83
2022/04/05 02:43:47;;;;;;;13.52;9.30;;;;;;;6.96;87.85;100285.91;5032692;28;20393;-84
2022/04/05 02:46:13;;;;;;;12.43;9.93;;;;;;;7.17;88.02;100344.25;5032302;28;20053;-84
2022/04/05 02:48:43;;;;;;;12.45;9.35;;;;;;;7.23;87.48;100341.09;5030004;28;20132;-84
2022/04/05 02:51:11;;;;;;;11.45;8.85;;;;;;;7.13;88.07;100339.78;5013096;28;20081;-84
2022/04/05 02:53:36;;;;;;;12.35;8.93;;;;;;;6.94;87.70;100318.34;5013194;28;20076;-84
2022/04/05 02:56:02;;;;;;;14.10;9.48;;;;;;;7.07;88.10;100348.03;5030192;28;20060;-84
2022/04/05 02:58:27;;;;;;;14.55;10.00;;;;;;;7.03;88.10;100341.00;5030003;28;20045;-83
2022/04/05 03:00:53;;;;;;;12.57;9.45;;;;;;;6.89;88.14;100304.41;5013195;28;20041;-84
2022/04/05 03:03:18;;;;;;;12.18;8.50;;;;;;;7.12;87.36;100333.75;5029752;28;20041;-84
2022/04/05 03:05:44;;;;;;;19.17;10.38;;;;;;;7.13;87.21;100321.81;5013225;28;20048;-83
2022/04/05 03:08:09;;;;;;;11.27;8.50;;;;;;;7.16;86.68;100318.50;5029470;28;20033;-84
2022/04/05 03:10:34;;;;;;;12.77;9.25;;;;;;;7.25;86.36;100330.09;5013088;28;20089;-84
2022/04/05 03:13:01;;;;;;;12.27;9.05;;;;;;;7.15;86.36;100293.63;5012921;28;20022;-85
2022/04/05 03:15:27;;;;;;;14.90;9.25;;;;;;;7.39;86.36;100335.00;5012915;28;20030;-84
2022/04/05 03:17:55;;;;;;;17.65;9.82;;;;;;;7.29;86.52;100321.72;5012880;28;20068;-83
2022/04/05 03:20:20;;;;;;;13.88;9.55;;;;;;;7.28;86.00;100332.81;5031285;28;20043;-82
2022/04/05 03:22:46;;;;;;;12.75;9.18;;;;;;;7.19;86.07;100329.81;5030646;28;20116;-82
2022/04/05 03:25:11;;;;;;;13.45;9.43;;;;;;;7.19;86.91;100328.91;5031987;28;20061;-83
2022/04/05 03:27:39;;;;;;;12.95;9.63;;;;;;;7.22;86.23;100326.50;5030573;28;20025;-83
2022/04/05 03:30:05;;;;;;;13.23;9.82;;;;;;;7.23;86.09;100326.56;5046616;28;20469;-83
2022/04/05 03:32:30;;;;;;;11.75;9.10;;;;;;;7.20;86.28;100323.88;5030683;28;20029;-83
2022/04/05 03:34:56;;;;;;;14.45;9.90;;;;;;;7.19;86.26;100318.63;5031409;28;20535;-83
2022/04/05 03:37:21;;;;;;;11.25;8.50;;;;;;;7.15;86.28;100334.72;5031699;28;20119;-84
2022/04/05 03:39:47;;;;;;;14.52;9.00;;;;;;;7.10;86.64;100337.03;5031634;28;20087;-84
2022/04/05 03:42:12;;;;;;;11.50;9.27;;;;;;;7.27;86.53;100346.44;5030356;28;20033;-84
2022/04/05 03:44:38;;;;;;;14.38;8.90;;;;;;;7.18;86.16;100320.34;5030379;28;20497;-84
2022/04/05 03:47:03;;;;;;;14.13;9.60;;;;;;;7.21;85.73;100333.31;5031888;28;20049;-84
2022/04/05 03:49:29;;;;;;;14.05;9.10;;;;;;;6.97;85.68;100295.38;5031500;28;20029;-84
2022/04/05 03:51:54;;;;;;;12.07;9.63;;;;;;;7.26;85.29;100342.13;5030199;28;20026;-83
2022/04/05 03:54:20;;;;;;;15.63;9.02;;;;;;;7.31;85.39;100344.91;5046734;28;20523;-86
2022/04/05 03:56:45;;;;;;;13.93;9.38;;;;;;;7.28;85.29;100330.22;5031575;28;20531;-84
2022/04/05 03:59:11;;;;;;;12.77;9.10;;;;;;;7.35;84.83;100333.09;5046780;28;20044;-85
2022/04/05 04:01:36;;;;;;;14.73;8.90;;;;;;;7.39;85.17;100338.47;5031168;28;20087;-84
2022/04/05 04:04:02;;;;;;;13.02;8.60;;;;;;;7.18;85.41;100322.00;5046282;28;20638;-84
2022/04/05 04:06:27;;;;;;;15.50;9.73;;;;;;;7.14;85.27;100349.25;5030944;28;20044;-85
2022/04/05 04:08:53;;;;;;;14.38;9.50;;;;;;;7.11;86.09;100338.81;5031048;28;20032;-85
2022/04/05 04:11:18;;;;;;;13.40;10.27;;;;;;;7.05;86.46;100348.78;5046405;28;20048;-84
2022/04/05 04:13:44;;;;;;;19.70;13.32;;;;;;;6.94;87.33;100330.28;5031048;28;20029;-84
2022/04/05 04:16:09;;;;;;;13.77;9.95;;;;;;;6.84;87.12;100339.22;5031330;28;20048;-83
2022/04/05 04:18:34;;;;;;;13.35;9.40;;;;;;;6.90;87.30;100348.91;5046047;28;20032;-84
2022/04/05 04:21:00;;;;;;;13.27;8.90;;;;;;;6.82;88.21;100355.31;5029403;28;20026;-85
2022/04/05 04:23:25;;;;;;;13.20;8.68;;;;;;;6.84;88.24;100359.75;5046241;28;20025;-84
2022/04/05 04:25:51;;;;;;;15.35;9.90;;;;;;;6.75;88.53;100341.31;5046269;28;20052;-84
2022/04/05 04:28:16;;;;;;;12.50;9.98;;;;;;;6.72;88.57;100336.91;5046261;28;20026;-84
2022/04/05 04:30:42;;;;;;;14.70;9.65;;;;;;;6.76;88.23;100351.66;5030611;28;20037;-83
2022/04/05 04:33:10;;;;;;;14.02;10.10;;;;;;;6.71;88.25;100354.81;5029438;28;20024;-84
2022/04/05 04:35:38;;;;;;;15.50;10.63;;;;;;;6.77;89.24;100355.13;5030746;28;20025;-84
2022/04/05 04:38:06;;;;;;;13.32;11.00;;;;;;;6.80;89.06;100339.84;5046027;28;20044;-83
2022/04/05 04:40:32;;;;;;;12.93;9.55;;;;;;;6.84;88.20;100335.75;5030824;28;20035;-83
2022/04/05 04:42:58;;;;;;;12.75;8.98;;;;;;;6.75;89.06;100313.09;5028724;28;20463;-83
2022/04/05 04:45:26;;;;;;;14.13;9.52;;;;;;;6.85;88.26;100353.78;5045635;28;20124;-84
2022/04/05 04:47:52;;;;;;;13.80;9.57;;;;;;;6.70;89.87;100345.34;5030370;28;20532;-84
2022/04/05 04:50:17;;;;;;;11.57;8.38;;;;;;;6.75;88.79;100356.72;5045829;28;20148;-85
2022/04/05 04:52:42;;;;;;;14.98;9.60;;;;;;;6.66;88.84;100344.31;5046035;28;20481;-84
2022/04/05 04:55:08;;;;;;;15.73;8.63;;;;;;;6.51;89.59;100302.50;5029070;28;20477;-84
2022/04/05 04:57:34;;;;;;;16.80;9.75;;;;;;;6.74;89.96;100335.31;5045605;28;20504;-84
2022/04/05 04:59:59;;;;;;;20.48;10.35;;;;;;;6.82;88.86;100337.34;5045515;28;20034;-84
2022/04/05 05:02:25;;;;;;;33.45;12.07;;;;;;;6.87;89.17;100341.94;5030252;28;20029;-84
2022/04/05 05:04:51;;;;;;;23.15;10.10;;;;;;;6.94;88.50;100344.00;5045815;28;20029;-83
2022/04/05 05:07:17;;;;;;;21.60;9.90;;;;;;;7.13;87.22;100357.75;5029245;28;20025;-83
2022/04/05 05:09:43;;;;;;;26.40;10.40;;;;;;;7.05;87.34;100323.09;5028866;28;20404;-84
2022/04/05 05:12:12;;;;;;;19.15;10.98;;;;;;;7.06;87.72;100325.75;5030504;28;20021;-84
2022/04/05 05:14:41;;;;;;;13.77;8.57;;;;;;;7.27;88.31;100350.72;5045644;28;20087;-83
2022/04/05 05:17:06;;;;;;;20.77;16.85;;;;;;;7.10;88.12;100348.22;5045141;28;20128;-82
2022/04/05 05:19:32;;;;;;;20.15;11.68;;;;;;;6.90;89.17;100302.72;5030227;28;20105;-83
2022/04/05 05:21:58;;;;;;;15.13;11.05;;;;;;;7.12;88.85;100348.28;5030443;28;20025;-83
2022/04/05 05:24:23;;;;;;;14.43;10.18;;;;;;;7.01;89.21;100326.34;5030137;28;20041;-84
2022/04/05 05:26:49;;;;;;;16.40;10.77;;;;;;;7.17;89.57;100346.81;5030348;28;20036;-82
2022/04/05 05:29:15;;;;;;;16.48;11.57;;;;;;;7.32;89.51;100362.06;5045163;28;20037;-83
2022/04/05 05:31:41;;;;;;;12.55;9.40;;;;;;;7.31;88.19;100377.41;5045249;28;20033;-83
2022/04/05 05:34:07;;;;;;;13.77;9.25;;;;;;;7.18;89.75;100351.16;5029989;28;20029;-83
2022/04/05 05:36:33;;;;;;;14.57;9.15;;;;;;;7.28;89.60;100361.03;5045463;28;20040;-83
2022/04/05 05:38:58;;;;;;;25.80;10.52;;;;;;;7.23;89.97;100359.94;5045299;28;20036;-83
2022/04/05 05:41:24;;;;;;;19.67;9.95;;;;;;;7.30;89.65;100376.53;5029889;28;20489;-83
2022/04/05 05:43:49;;;;;;;16.77;11.45;;;;;;;7.34;89.86;100377.56;5030189;28;20029;-83
2022/04/05 05:46:15;;;;;;;25.95;10.95;;;;;;;7.41;89.58;100364.22;5045076;28;20053;-84
2022/04/05 05:48:41;;;;;;;15.23;9.55;;;;;;;7.48;89.97;100366.28;5045519;28;20522;-83
2022/04/05 05:51:07;;;;;;;33.80;11.85;;;;;;;7.47;89.84;100361.94;5030098;28;20021;-84
2022/04/05 05:53:34;;;;;;;15.85;10.43;;;;;;;7.57;88.77;100360.69;5046255;28;20036;-83
2022/04/05 05:56:00;;;;;;;15.27;10.50;;;;;;;7.50;88.37;100344.13;5049180;28;20084;-84
2022/04/05 05:58:26;;;;;;;16.70;9.93;;;;;;;7.63;88.73;100349.78;5032023;28;20033;-86
2022/04/05 06:00:51;;;;;;;13.93;9.13;;;;;;;7.75;88.02;100360.66;5031812;28;20095;-85
2022/04/05 06:03:17;;;;;;;15.48;9.38;;;;;;;7.74;88.33;100358.91;5049041;28;20037;-84
2022/04/05 06:05:43;;;;;;;16.58;9.60;;;;;;;7.84;87.91;100366.22;5032162;28;20033;-84
2022/04/05 06:08:10;;;;;;;17.08;9.75;;;;;;;7.85;87.54;100355.16;5032036;28;20053;-85
2022/04/05 06:10:36;;;;;;;33.50;11.55;;;;;;;7.97;87.93;100364.22;5032207;28;20405;-83
2022/04/05 06:13:02;;;;;;;20.83;11.23;;;;;;;7.86;87.50;100314.88;5048615;28;20071;-85
2022/04/05 06:15:28;;;;;;;18.73;10.02;;;;;;;8.28;85.98;100373.34;5048094;28;20587;-86
2022/04/05 06:17:54;;;;;;;16.02;9.52;;;;;;;8.34;85.13;100365.88;5031942;28;20421;-84
2022/04/05 06:20:21;;;;;;;16.92;9.73;;;;;;;8.47;85.94;100368.19;5031855;28;20112;-86
2022/04/05 06:22:53;;;;;;;17.20;10.10;;;;;;;8.41;85.58;100371.38;5032949;28;20021;-84
2022/04/05 06:25:22;;;;;;;21.80;10.43;;;;;;;8.44;85.02;100350.03;5033125;28;20025;-84
2022/04/05 06:27:47;;;;;;;17.48;11.13;;;;;;;8.24;87.31;100357.75;5033129;28;20056;-82
2022/04/05 06:30:15;;;;;;;19.95;11.48;;;;;;;8.26;89.42;100343.28;5031256;28;20029;-84
2022/04/05 06:32:40;;;;;;;23.38;11.55;;;;;;;8.37;86.75;100363.44;5033170;28;20032;-83
2022/04/05 06:35:07;;;;;;;20.35;11.65;;;;;;;8.30;86.23;100335.69;5048182;28;20037;-85
2022/04/05 06:37:35;;;;;;;22.25;11.70;;;;;;;8.50;86.91;100347.75;5032915;28;20064;-83
2022/04/05 06:40:02;;;;;;;19.02;11.48;;;;;;;8.62;86.92;100343.97;5047984;28;20030;-84
2022/04/05 06:42:29;;;;;;;20.33;11.40;;;;;;;8.74;86.09;100365.06;5032548;28;20053;-82
2022/04/05 06:44:54;;;;;;;24.45;12.00;;;;;;;8.67;85.65;100351.06;5031525;28;20029;-82
2022/04/05 06:47:20;;;;;;;23.30;13.40;;;;;;;8.30;86.55;100339.16;5032277;28;20410;-85
2022/04/05 06:49:45;;;;;;;25.02;13.15;;;;;;;8.51;86.43;100357.25;5030044;28;20041;-85
2022/04/05 06:52:11;;;;;;;22.80;12.48;;;;;;;8.67;85.92;100371.66;5013571;28;20029;-85
2022/04/05 06:54:36;;;;;;;25.20;12.10;;;;;;;8.76;85.08;100354.84;5029979;28;20103;-84
2022/04/05 06:57:02;;;;;;;24.23;12.73;;;;;;;8.82;85.20;100347.38;5013169;28;20029;-84
2022/04/05 06:59:29;;;;;;;22.73;11.75;;;;;;;9.02;85.96;100361.06;5030053;28;20068;-86
2022/04/05 07:01:54;;;;;;;23.35;12.50;;;;;;;8.99;83.78;100332.63;4990494;28;20513;-85
2022/04/05 07:04:20;;;;;;;24.23;12.15;;;;;;;9.35;82.74;100371.00;4990549;28;20146;-86
2022/04/05 07:06:45;;;;;;;22.08;11.85;;;;;;;8.97;81.17;100272.47;4989635;28;20127;-85
2022/04/05 07:09:10;;;;;;;20.83;12.30;;;;;;;9.57;80.66;100356.38;4990465;28;20536;-86
2022/04/05 07:11:37;;;;;;;24.60;12.90;;;;;;;9.71;79.80;100366.41;4990029;28;20050;-83
2022/04/05 07:14:02;;;;;;;17.13;12.57;;;;;;;9.62;79.41;100337.72;4990171;28;20026;-86
2022/04/05 07:16:28;;;;;;;20.10;12.75;;;;;;;9.78;79.19;100361.50;4990179;28;20057;-85
2022/04/05 07:18:53;;;;;;;19.83;12.45;;;;;;;9.76;77.90;100358.88;4990169;28;20026;-85
2022/04/05 07:21:20;;;;;;;17.23;12.75;;;;;;;9.77;78.67;100357.16;5004408;28;20417;-85
2022/04/05 07:23:49;;;;;;;20.55;13.95;;;;;;;9.86;78.27;100366.13;4993223;28;20501;-83
2022/04/05 07:26:15;;;;;;;22.47;12.60;;;;;;;9.90;78.06;100364.53;5009700;28;20026;-85
2022/04/05 07:28:40;;;;;;;22.83;13.73;;;;;;;9.96;78.49;100371.66;5009484;28;20041;-86
2022/04/05 07:31:06;;;;;;;22.92;13.23;;;;;;;10.09;77.65;100355.78;4993184;28;20033;-86
2022/04/05 07:33:31;;;;;;;22.35;13.90;;;;;;;10.26;77.26;100368.44;5020334;28;20395;-86
2022/04/05 07:35:57;;;;;;;23.27;13.75;;;;;;;10.28;77.31;100349.63;5047020;28;20028;-86
2022/04/05 07:38:24;;;;;;;19.33;13.05;;;;;;;10.48;77.22;100365.84;5047195;28;20591;-86
2022/04/05 07:40:50;;;;;;;20.55;13.82;;;;;;;10.33;75.17;100363.56;5031423;28;20025;-86
2022/04/05 07:43:24;;;;;;;17.30;13.38;;;;;;;9.93;78.59;100297.63;5030334;28;20030;-85
2022/04/05 07:45:50;;;;;;;19.65;13.93;;;;;;;10.44;75.67;100374.31;5031280;28;20048;-84
2022/04/05 07:48:18;;;;;;;21.63;13.50;;;;;;;10.55;74.08;100359.19;5031509;28;20409;-86
2022/04/05 07:50:44;;;;;;;17.15;12.45;;;;;;;10.54;75.19;100365.16;5031171;28;20031;-86
2022/04/05 07:53:10;;;;;;;18.88;12.32;;;;;;;10.50;74.66;100346.13;5031377;28;20511;-86
2022/04/05 07:55:35;;;;;;;15.82;12.15;;;;;;;10.60;73.01;100338.69;5031124;28;20021;-86
2022/04/05 07:58:01;;;;;;;15.70;12.20;;;;;;;10.71;73.19;100345.09;5031766;28;20029;-86
2022/04/05 08:00:27;;;;;;;22.35;13.18;;;;;;;10.62;72.51;100316.41;5030044;28;20516;-87
2022/04/05 08:02:52;;;;;;;18.73;11.50;;;;;;;10.49;72.39;100308.25;5031258;28;20425;-86
2022/04/05 08:05:18;;;;;;;18.17;12.00;;;;;;;10.75;72.23;100304.78;5046338;28;20083;-87
2022/04/05 08:07:46;;;;;;;17.50;11.57;;;;;;;11.10;71.96;100349.88;5046651;28;20449;-86
2022/04/05 08:10:13;;;;;;;17.38;12.20;;;;;;;11.20;71.85;100337.25;5030988;28;20025;-86
2022/04/05 08:12:46;;;;;;;18.75;12.13;;;;;;;11.16;73.58;100344.91;5031179;28;20486;-86
2022/04/05 08:15:20;;;;;;;19.20;13.30;;;;;;;11.00;75.08;100351.28;5030937;28;20029;-86
2022/04/05 08:17:45;;;;;;;17.25;13.15;;;;;;;11.15;74.61;100337.09;5029813;28;20029;-86
2022/04/05 08:20:11;;;;;;;18.70;11.05;;;;;;;11.07;74.42;100328.22;5029364;28;20021;-85
2022/04/05 08:22:38;;;;;;;17.75;12.60;;;;;;;10.97;74.18;100296.03;5029442;28;20105;-86
2022/04/05 08:25:04;;;;;;;14.73;11.73;;;;;;;11.28;73.85;100334.06;5046263;28;20030;-85
2022/04/05 08:27:30;;;;;;;23.42;12.88;;;;;;;11.40;73.34;100331.00;5008636;28;20034;-86
2022/04/05 08:29:55;;;;;;;17.30;13.13;;;;;;;11.41;72.25;100314.66;5008436;28;20048;-85
2022/04/05 08:32:21;;;;;;;22.40;12.48;;;;;;;11.64;72.46;100338.63;5008891;28;20053;-85
2022/04/05 08:34:47;;;;;;;15.95;13.05;;;;;;;11.75;72.63;100328.63;5008701;28;20104;-86
2022/04/05 08:37:13;;;;;;;17.92;12.07;;;;;;;11.65;71.24;100296.44;5008285;28;20037;-85
2022/04/05 08:39:40;;;;;;;20.95;12.60;;;;;;;11.83;71.84;100318.50;5008860;28;20041;-85
2022/04/05 08:42:07;;;;;;;17.63;11.23;;;;;;;11.70;71.65;100312.09;4992085;28;20049;-84
2022/04/05 08:44:33;;;;;;;16.25;11.80;;;;;;;11.71;70.29;100321.56;5008433;28;20124;-84
2022/04/05 08:47:03;;;;;;;19.42;12.95;;;;;;;11.88;71.25;100321.22;5008288;28;20091;-84
2022/04/05 08:49:30;;;;;;;17.15;12.32;;;;;;;11.65;70.42;100308.47;4991782;28;20038;-84
2022/04/05 08:51:56;;;;;;;18.85;11.63;;;;;;;11.85;70.59;100316.84;4991591;28;20030;-85
2022/04/05 08:54:22;;;;;;;15.25;10.77;;;;;;;11.99;70.13;100293.97;5008517;28;20041;-86
2022/04/05 08:56:48;;;;;;;13.50;10.55;;;;;;;12.39;68.86;100305.41;5008469;28;20091;-84
2022/04/05 08:59:14;;;;;;;14.63;10.45;;;;;;;12.62;66.62;100287.00;5021084;28;20048;-85
2022/04/05 09:01:43;;;;;;;18.00;11.32;;;;;;;12.83;66.91;100285.81;5030359;28;20026;-85
2022/04/05 09:04:10;;;;;;;19.37;11.30;;;;;;;12.54;65.21;100237.63;5030028;28;20040;-83
2022/04/05 09:06:36;;;;;;;14.25;10.68;;;;;;;12.85;64.60;100271.19;5045889;28;20490;-85
2022/04/05 09:09:11;;;;;;;14.65;10.70;;;;;;;12.82;67.16;100281.47;5029249;28;20033;-83
2022/04/05 09:11:43;;;;;;;12.02;9.45;;;;;;;12.77;66.56;100271.88;5028870;28;20108;-84
2022/04/05 09:14:09;;;;;;;12.63;9.70;;;;;;;12.78;65.91;100268.47;5030450;28;20037;-85
2022/04/05 09:16:35;;;;;;;10.52;8.98;;;;;;;12.87;65.44;100249.66;5030122;28;20037;-85
2022/04/05 09:19:13;;;;;;;11.90;9.35;;;;;;;12.92;64.32;100258.41;5045507;28;20647;-85
2022/04/05 09:21:48;;;;;;;11.98;9.73;;;;;;;12.94;65.35;100263.63;5030419;28;20029;-85
2022/04/05 09:24:14;;;;;;;12.10;9.35;;;;;;;13.02;65.02;100256.94;5029204;28;20082;-86
2022/04/05 09:26:43;;;;;;;12.57;8.63;;;;;;;13.03;63.86;100237.91;5045328;28;20044;-86
2022/04/05 09:29:10;;;;;;;11.38;9.23;;;;;;;13.18;62.24;100263.31;5031977;28;20123;-84
2022/04/05 09:32:01;;;;;;;13.57;9.82;;;;;;;13.15;62.23;100252.91;5032843;28;20519;-85
2022/04/05 09:34:27;;;;;;;10.77;8.65;;;;;;;13.08;61.53;100210.44;4972777;28;20090;-86
2022/04/05 09:36:52;;;;;;;10.30;8.00;;;;;;;13.18;62.28;100237.41;4972793;28;20034;-84
2022/04/05 09:39:23;;;;;;;9.90;7.60;;;;;;;13.08;61.87;100238.03;4973089;28;20138;-85
2022/04/05 09:41:56;;;;;;;10.43;7.53;;;;;;;13.00;62.75;100239.59;4972445;28;20058;-85
2022/04/05 09:44:26;;;;;;;9.38;7.60;;;;;;;13.22;60.76;100238.34;4972699;28;20050;-85
2022/04/05 09:47:04;;;;;;;12.35;7.70;;;;;;;13.09;59.00;100188.81;4956168;28;20055;-84
2022/04/05 09:49:38;;;;;;;7.95;6.65;;;;;;;13.61;57.64;100236.59;4972500;28;20034;-84
2022/04/05 09:52:21;;;;;;;9.27;6.57;;;;;;;13.72;56.64;100209.16;4972365;28;20514;-84
2022/04/05 09:54:47;;;;;;;11.95;7.32;;;;;;;14.05;55.46;100234.03;4972360;28;20023;-85
2022/04/05 09:57:12;;;;;;;11.63;7.50;;;;;;;14.16;55.93;100231.66;4972469;28;20553;-84
2022/04/05 09:59:46;;;;;;;13.38;9.48;;;;;;;14.34;55.86;100234.59;4972123;28;20534;-84
2022/04/05 10:02:13;;;;;;;8.77;6.85;;;;;;;14.11;53.79;100230.69;4972410;28;20034;-83
2022/04/05 10:05:01;;;;;;;9.43;7.22;;;;;;;14.40;54.32;100218.22;4972153;28;20046;-83
2022/04/05 10:07:28;;;;;;;11.70;7.07;;;;;;;14.47;52.53;100221.81;4972167;28;20073;-84
2022/04/05 10:09:54;;;;;;;11.40;6.85;;;;;;;14.50;51.45;100201.06;4972110;28;20042;-83
2022/04/05 10:12:20;;;;;;;9.05;6.05;;;;;;;14.43;51.26;100194.00;5029920;28;20041;-84
2022/04/05 10:14:45;;;;;;;9.45;5.80;;;;;;;14.52;49.75;100184.66;5048373;28;20033;-85
2022/04/05 10:17:13;;;;;;;8.20;5.00;;;;;;;14.63;49.10;100161.44;5033105;28;20030;-85
2022/04/05 10:19:44;;;;;;;7.25;5.38;;;;;;;14.95;48.71;100183.59;5033009;28;20017;-85
2022/04/05 10:22:11;;;;;;;8.32;5.82;;;;;;;14.94;49.67;100187.94;5048313;28;20025;-85
2022/04/05 10:24:38;;;;;;;9.35;6.13;;;;;;;14.99;49.57;100195.78;5033381;28;20402;-85
2022/04/05 10:27:06;;;;;;;7.78;6.43;;;;;;;14.96;48.48;100181.00;5032883;28;20040;-85
2022/04/05 10:29:32;;;;;;;7.95;5.43;;;;;;;15.15;48.66;100170.88;5031560;28;20124;-84
2022/04/05 10:32:36;;;;;;;6.40;5.00;;;;;;;15.63;48.19;100187.09;5031783;28;20457;-85
2022/04/05 10:35:08;;;;;;;6.30;5.20;;;;;;;15.82;47.95;100188.19;5032916;28;20116;-84
2022/04/05 10:37:38;;;;;;;8.27;5.55;;;;;;;15.74;47.02;100114.31;5033033;28;20028;-85
2022/04/05 10:40:10;;;;;;;8.38;5.15;;;;;;;16.21;46.13;100173.81;5046759;28;20061;-85
2022/04/05 10:42:41;;;;;;;7.72;5.57;;;;;;;16.10;47.46;100165.03;5031703;28;20029;-83
2022/04/05 10:45:41;;;;;;;8.25;5.07;;;;;;;16.15;45.00;100159.03;5031419;28;20033;-85
2022/04/05 10:48:18;;;;;;;7.88;5.03;;;;;;;16.44;44.30;100165.34;4971333;28;20086;-85
2022/04/05 10:51:01;;;;;;;7.68;5.28;;;;;;;16.50;44.62;100150.63;4971327;28;20037;-85
2022/04/05 10:53:34;;;;;;;7.97;5.47;;;;;;;16.59;43.88;100154.16;4971140;28;20133;-85
2022/04/05 10:56:10;;;;;;;7.20;4.97;;;;;;;16.28;42.91;100139.16;4971322;28;20034;-85
2022/04/05 10:58:38;;;;;;;9.73;5.60;;;;;;;16.38;44.96;100139.25;4971193;28;20102;-83
2022/04/05 11:01:20;;;;;;;8.00;5.28;;;;;;;16.43;43.61;100129.72;4971172;28;20074;-84
2022/04/05 11:04:31;;;;;;;7.60;4.95;;;;;;;16.88;42.57;100135.22;4971233;28;20035;-84
2022/04/05 11:06:59;;;;;;;7.38;5.20;;;;;;;17.08;44.71;100128.41;4894731;29;20036;-84
2022/04/05 11:09:26;;;;;;;6.83;5.37;;;;;;;16.90;45.42;100125.69;4894604;29;20059;-84
2022/04/05 11:11:53;;;;;;;6.25;4.57;;;;;;;16.97;45.20;100109.22;4894822;29;20803;-83
2022/04/05 11:14:52;;;;;;;8.38;6.57;;;;;;;16.96;47.58;100113.59;4894767;29;20036;-84
2022/04/05 11:17:20;;;;;;;11.37;7.40;;;;;;;16.79;46.93;100107.38;4875905;29;20056;-83
2022/04/05 11:19:50;;;;;;;7.78;6.43;;;;;;;16.93;44.28;100063.16;4860075;29;20389;-83